Time;durP1;ratioP1;P1;durP2;ratioP2;P2;SDS_P1;SDS_P2;PMS_P1;PMS_P2;Temp;Humidity;BMP_temperature;BMP_pressure;BME280_temperature;BME280_humidity;BME280_pressure;Samples;Min_cycle;Max_cycle;Signal;HPM_P1;HPM_P2
2024/03/03 00:00:24;;;;;;;;;13.50;12.50;;;;;12.37;100.00;99138.50;2101619;28;46710;-52
2024/03/03 00:01:25;;;;;;;;;16.00;15.40;;;;;12.33;100.00;99131.66;2102723;28;46923;-50
2024/03/03 00:02:25;;;;;;;;;14.75;14.00;;;;;12.30;100.00;99129.13;2102987;28;46694;-53
2024/03/03 00:03:25;;;;;;;;;15.25;14.25;;;;;12.29;100.00;99128.25;2102959;28;46403;-53
2024/03/03 00:04:26;;;;;;;;;17.25;16.25;;;;;12.50;100.00;99125.41;2094144;28;46473;-49
2024/03/03 00:05:26;;;;;;;;;12.25;12.25;;;;;12.52;100.00;99127.03;2094206;28;46726;-52
2024/03/03 00:06:26;;;;;;;;;12.25;12.25;;;;;12.54;100.00;99129.59;2103607;28;46454;-54
2024/03/03 00:07:27;;;;;;;;;11.00;10.00;;;;;12.57;100.00;99132.94;2102919;28;45623;-52
2024/03/03 00:08:27;;;;;;;;;9.00;9.00;;;;;12.59;100.00;99132.88;2102984;28;46460;-53
2024/03/03 00:09:27;;;;;;;;;15.00;13.75;;;;;12.60;100.00;99139.91;2094060;28;46275;-56
2024/03/03 00:10:27;;;;;;;;;17.00;15.75;;;;;12.61;100.00;99133.66;2094037;28;46862;-52
2024/03/03 00:11:28;;;;;;;;;13.75;13.75;;;;;12.58;100.00;99133.81;2102898;28;46749;-52
2024/03/03 00:12:28;;;;;;;;;11.67;11.67;;;;;12.62;100.00;99138.03;2103282;28;46429;-51
2024/03/03 00:13:29;;;;;;;;;10.00;10.00;;;;;12.62;100.00;99132.69;2093920;28;46027;-51
2024/03/03 00:14:29;;;;;;;;;9.67;9.33;;;;;12.62;100.00;99136.22;2091313;28;46401;-53
2024/03/03 00:15:30;;;;;;;;;9.00;9.00;;;;;12.62;100.00;99141.53;2102265;28;46211;-51
2024/03/03 00:16:33;;;;;;;;;9.33;8.33;;;;;12.62;100.00;99135.38;2102968;28;46228;-52
2024/03/03 00:17:33;;;;;;;;;9.00;9.00;;;;;12.61;100.00;99137.16;2101771;28;46508;-51
2024/03/03 00:18:38;;;;;;;;;11.33;10.33;;;;;12.62;100.00;99130.91;2102567;28;46419;-52
2024/03/03 00:19:40;;;;;;;;;9.25;9.25;;;;;12.63;100.00;99147.72;2093483;28;46513;-50
2024/03/03 00:20:40;;;;;;;;;8.75;8.75;;;;;12.62;100.00;99152.19;2094327;28;46693;-52
2024/03/03 00:21:41;;;;;;;;;9.33;9.33;;;;;12.62;100.00;99157.50;2101654;28;46620;-53
2024/03/03 00:22:41;;;;;;;;;12.33;11.33;;;;;12.63;100.00;99158.38;2102750;28;46411;-50
2024/03/03 00:23:42;;;;;;;;;10.33;9.67;;;;;12.63;100.00;99167.22;2103513;28;46184;-53
2024/03/03 00:24:42;;;;;;;;;7.00;7.00;;;;;12.63;100.00;99164.56;2102456;28;46917;-49
2024/03/03 00:25:42;;;;;;;;;9.33;9.33;;;;;12.61;100.00;99161.13;2102567;28;46764;-49
2024/03/03 00:26:42;;;;;;;;;8.33;8.33;;;;;12.60;100.00;99166.53;2102133;28;46863;-53
2024/03/03 00:27:43;;;;;;;;;7.00;7.00;;;;;12.60;100.00;99163.88;2102973;28;46508;-52
2024/03/03 00:28:43;;;;;;;;;9.67;9.00;;;;;12.59;100.00;99165.66;2084828;28;46170;-50
2024/03/03 00:29:43;;;;;;;;;8.00;8.00;;;;;12.60;100.00;99169.19;2082216;28;46234;-49
2024/03/03 00:30:44;;;;;;;;;11.00;9.33;;;;;12.60;100.00;99171.84;2102242;28;46208;-49
2024/03/03 00:31:45;;;;;;;;;8.00;7.00;;;;;12.62;100.00;99173.47;2089349;28;45481;-53
2024/03/03 00:32:45;;;;;;;;;8.33;8.00;;;;;12.62;100.00;99176.13;2089898;28;46285;-51
2024/03/03 00:33:46;;;;;;;;;9.67;8.00;;;;;12.62;100.00;99177.94;2103267;28;46779;-50
2024/03/03 00:34:46;;;;;;;;;7.00;7.00;;;;;12.58;100.00;99182.59;2102297;27;46180;-50
2024/03/03 00:35:47;;;;;;;;;8.67;8.00;;;;;12.57;100.00;99177.31;2103775;28;46921;-49
2024/03/03 00:36:47;;;;;;;;;10.00;10.00;;;;;12.60;100.00;99179.84;2103319;28;46921;-52
2024/03/03 00:37:47;;;;;;;;;11.00;11.00;;;;;12.56;100.00;99180.91;2102739;28;46235;-53
2024/03/03 00:38:48;;;;;;;;;8.00;8.00;;;;;12.57;100.00;99178.16;2103154;28;46683;-50
2024/03/03 00:39:48;;;;;;;;;9.00;9.00;;;;;12.44;100.00;99171.81;2102999;28;46149;-53
2024/03/03 00:40:48;;;;;;;;;9.33;9.33;;;;;12.51;100.00;99180.31;2103117;28;46435;-52
2024/03/03 00:41:48;;;;;;;;;8.67;8.67;;;;;12.51;100.00;99170.53;2103101;28;46882;-52
2024/03/03 00:42:49;;;;;;;;;7.00;6.00;;;;;12.47;100.00;99173.47;2102840;28;46528;-54
2024/03/03 00:43:49;;;;;;;;;9.00;9.00;;;;;12.31;100.00;99178.72;2103146;27;46826;-51
2024/03/03 00:44:49;;;;;;;;;8.33;8.33;;;;;12.45;100.00;99175.31;2102906;28;46450;-51
2024/03/03 00:45:50;;;;;;;;;10.33;10.33;;;;;12.57;100.00;99169.34;2101692;27;46772;-52
2024/03/03 00:46:50;;;;;;;;;12.00;12.00;;;;;12.57;100.00;99175.50;2103199;27;46276;-50
2024/03/03 00:47:50;;;;;;;;;10.67;10.00;;;;;12.57;100.00;99174.66;2103270;28;46728;-49
2024/03/03 00:48:51;;;;;;;;;10.00;10.00;;;;;12.56;100.00;99175.59;2102759;28;46481;-53
2024/03/03 00:49:51;;;;;;;;;9.00;7.33;;;;;12.58;100.00;99179.91;2102934;28;46481;-49
2024/03/03 00:50:51;;;;;;;;;11.00;11.00;;;;;12.45;100.00;99173.53;2102881;27;46222;-49
2024/03/03 00:51:52;;;;;;;;;11.67;11.00;;;;;12.34;100.00;99178.56;2103003;27;46659;-49
2024/03/03 00:52:54;;;;;;;;;11.67;11.33;;;;;12.32;100.00;99172.44;2103209;28;46134;-53
2024/03/03 00:53:54;;;;;;;;;12.75;12.75;;;;;12.29;100.00;99164.66;2093914;28;46522;-53
2024/03/03 00:54:56;;;;;;;;;14.67;14.33;;;;;12.33;100.00;99168.88;2093893;28;46223;-51
2024/03/03 00:55:57;;;;;;;;;15.50;14.75;;;;;12.33;100.00;99174.19;2102754;28;46476;-51
2024/03/03 00:56:57;;;;;;;;;18.00;16.00;;;;;12.46;100.00;99175.25;2103075;27;46257;-49
2024/03/03 00:57:58;;;;;;;;;16.00;15.75;;;;;12.46;100.00;99174.41;2102726;28;45712;-49
2024/03/03 00:58:58;;;;;;;;;17.60;17.60;;;;;12.46;100.00;99172.59;2102926;28;46294;-48
2024/03/03 00:59:59;;;;;;;;;23.00;22.00;;;;;12.43;100.00;99177.22;2102746;28;46253;-48
2024/03/03 01:00:59;;;;;;;;;23.00;19.25;;;;;12.42;100.00;99175.50;2082813;28;46367;-52
2024/03/03 01:01:59;;;;;;;;;20.25;20.25;;;;;12.39;100.00;99181.84;2075755;28;46922;-54
2024/03/03 01:03:00;;;;;;;;;18.50;17.50;;;;;12.38;100.00;99167.69;2093241;28;46242;-48
2024/03/03 01:04:00;;;;;;;;;17.50;17.50;;;;;12.48;100.00;99167.19;2085858;28;46173;-51
2024/03/03 01:05:00;;;;;;;;;19.75;17.50;;;;;12.51;100.00;99170.53;2084473;28;46186;-53
2024/03/03 01:06:01;;;;;;;;;12.50;12.50;;;;;12.53;100.00;99162.47;2102596;28;45721;-53
2024/03/03 01:07:01;;;;;;;;;15.75;14.50;;;;;12.54;100.00;99158.88;2103279;28;46080;-51
2024/03/03 01:08:02;;;;;;;;;17.00;16.00;;;;;12.54;100.00;99150.88;2102992;27;46257;-51
2024/03/03 01:09:04;;;;;;;;;19.40;16.60;;;;;12.55;100.00;99161.44;2102601;28;46415;-51
2024/03/03 01:10:06;;;;;;;;;16.75;16.75;;;;;12.56;100.00;99156.97;2102837;28;46784;-51
2024/03/03 01:11:06;;;;;;;;;12.75;12.25;;;;;12.53;100.00;99159.81;2098466;27;46189;-53
2024/03/03 01:12:06;;;;;;;;;12.00;12.00;;;;;12.54;100.00;99156.19;2097964;28;46609;-51
2024/03/03 01:13:07;;;;;;;;;16.50;16.50;;;;;12.55;100.00;99150.78;2102626;28;46611;-52
2024/03/03 01:14:09;;;;;;;;;15.50;15.50;;;;;12.52;100.00;99148.31;2103026;28;46656;-51
2024/03/03 01:15:09;;;;;;;;;12.80;12.80;;;;;12.50;100.00;99147.53;2102662;28;45828;-50
2024/03/03 01:16:10;;;;;;;;;11.50;11.50;;;;;12.48;100.00;99146.75;2093646;28;46336;-53
2024/03/03 01:17:10;;;;;;;;;17.75;16.75;;;;;12.48;100.00;99145.91;2094078;28;46811;-51
2024/03/03 01:18:10;;;;;;;;;16.25;16.25;;;;;12.48;100.00;99148.56;2101937;27;45833;-52
2024/03/03 01:19:10;;;;;;;;;12.67;12.67;;;;;12.48;100.00;99148.56;2103227;27;46602;-52
2024/03/03 01:20:12;;;;;;;;;12.67;12.67;;;;;12.49;100.00;99152.94;2102273;28;47157;-55
2024/03/03 01:21:12;;;;;;;;;11.75;11.75;;;;;12.48;100.00;99151.22;2102221;28;46604;-51
2024/03/03 01:22:12;;;;;;;;;14.00;13.33;;;;;12.48;100.00;99153.88;2102638;28;46589;-49
2024/03/03 01:23:14;;;;;;;;;15.00;14.25;;;;;12.48;100.00;99145.91;2102691;27;46663;-52
2024/03/03 01:24:14;;;;;;;;;14.75;13.00;;;;;12.45;100.00;99148.72;2084238;28;47157;-51
2024/03/03 01:25:14;;;;;;;;;16.00;15.75;;;;;12.46;100.00;99143.34;2084408;28;46831;-51
2024/03/03 01:26:15;;;;;;;;;19.50;18.25;;;;;12.48;100.00;99151.22;2102511;27;46705;-52
2024/03/03 01:27:16;;;;;;;;;12.00;11.00;;;;;12.47;100.00;99150.38;2089358;28;46611;-52
2024/03/03 01:28:16;;;;;;;;;19.40;18.20;;;;;12.48;100.00;99157.41;2089329;28;46277;-51
2024/03/03 01:29:17;;;;;;;;;17.75;16.50;;;;;12.47;100.00;99160.16;2102286;28;46204;-54
2024/03/03 01:30:17;;;;;;;;;15.00;15.00;;;;;12.50;100.00;99160.84;2102643;28;46824;-52
2024/03/03 01:31:17;;;;;;;;;17.50;16.50;;;;;12.49;100.00;99167.09;2102153;28;46669;-53
2024/03/03 01:32:18;;;;;;;;;16.75;15.50;;;;;12.47;100.00;99166.34;2100887;28;46791;-51
2024/03/03 01:33:18;;;;;;;;;22.25;20.00;;;;;12.49;100.00;99171.56;2097303;28;46299;-49
2024/03/03 01:34:19;;;;;;;;;19.25;18.00;;;;;12.49;100.00;99171.56;2096533;28;46327;-48
2024/03/03 01:35:19;;;;;;;;;21.25;19.50;;;;;12.49;100.00;99171.56;2096648;28;46175;-53
2024/03/03 01:36:19;;;;;;;;;22.00;20.75;;;;;12.49;100.00;99169.75;2097350;28;46612;-50
2024/03/03 01:37:20;;;;;;;;;22.25;19.25;;;;;12.50;100.00;99167.97;2098043;28;47185;-51
2024/03/03 01:38:20;;;;;;;;;24.50;22.50;;;;;12.52;100.00;99171.41;2105299;27;46759;-49
2024/03/03 01:39:21;;;;;;;;;21.00;20.50;;;;;12.51;100.00;99172.34;2105614;27;46473;-52
2024/03/03 01:40:21;;;;;;;;;24.75;23.50;;;;;12.50;100.00;99165.31;2097505;28;46686;-52
2024/03/03 01:41:21;;;;;;;;;23.00;22.75;;;;;12.48;100.00;99165.41;2097867;28;46987;-50
2024/03/03 01:42:22;;;;;;;;;22.25;22.25;;;;;12.47;100.00;99162.81;2097626;27;46416;-52
2024/03/03 01:43:22;;;;;;;;;26.75;24.75;;;;;12.31;100.00;99162.75;2098571;28;46224;-47
2024/03/03 01:44:22;;;;;;;;;22.25;21.25;;;;;12.31;100.00;99157.44;2096886;28;46894;-50
2024/03/03 01:45:24;;;;;;;;;19.50;18.50;;;;;12.45;100.00;99157.59;2098773;28;46657;-50
2024/03/03 01:46:24;;;;;;;;;24.00;24.00;;;;;12.47;100.00;99158.34;2097980;28;46532;-50
2024/03/03 01:47:25;;;;;;;;;21.00;21.00;;;;;12.48;100.00;99157.41;2099032;27;46617;-49
2024/03/03 01:48:25;;;;;;;;;19.50;18.75;;;;;12.49;100.00;99163.59;2098208;27;46374;-51
2024/03/03 01:49:27;;;;;;;;;23.00;23.00;;;;;12.49;100.00;99163.59;2098028;27;46330;-52
2024/03/03 01:50:27;;;;;;;;;24.60;23.00;;;;;12.48;100.00;99149.44;2106982;27;46263;-52
2024/03/03 01:51:29;;;;;;;;;20.50;19.75;;;;;12.49;100.00;99158.28;2109336;27;46240;-52
2024/03/03 01:52:30;;;;;;;;;19.60;19.60;;;;;12.47;100.00;99163.69;2097878;28;46764;-52
2024/03/03 01:53:31;;;;;;;;;25.00;22.75;;;;;12.48;100.00;99162.72;2098277;28;46668;-51
2024/03/03 01:54:35;;;;;;;;;23.00;21.00;;;;;12.46;100.00;99156.63;2098790;28;46324;-52
2024/03/03 01:55:35;;;;;;;;;22.60;22.60;;;;;12.45;100.00;99162.00;2098110;28;46478;-49
2024/03/03 01:56:38;;;;;;;;;20.00;18.75;;;;;12.45;100.00;99168.22;2098696;27;46718;-52
2024/03/03 01:57:39;;;;;;;;;24.40;23.20;;;;;12.47;100.00;99162.81;2097361;28;46291;-54
2024/03/03 01:58:41;;;;;;;;;26.25;21.00;;;;;12.48;100.00;99161.88;2097032;28;46546;-52
2024/03/03 01:59:42;;;;;;;;;23.00;23.00;;;;;12.45;100.00;99165.56;2097154;28;46426;-53
2024/03/03 02:00:42;;;;;;;;;18.50;18.50;;;;;12.44;100.00;99155.84;2097798;28;46265;-54
2024/03/03 02:01:44;;;;;;;;;22.75;21.75;;;;;12.46;100.00;99155.78;2098302;28;45780;-53
2024/03/03 02:02:45;;;;;;;;;24.00;23.00;;;;;12.47;100.00;99157.50;2098429;28;46469;-54
2024/03/03 02:03:46;;;;;;;;;25.40;24.00;;;;;12.49;100.00;99159.13;2097539;28;46661;-54
2024/03/03 02:04:47;;;;;;;;;22.80;21.00;;;;;12.52;100.00;99158.94;2097872;28;46932;-50
2024/03/03 02:05:48;;;;;;;;;25.20;25.20;;;;;12.52;100.00;99158.94;2096276;28;46220;-55
2024/03/03 02:06:50;;;;;;;;;24.25;24.25;;;;;12.52;100.00;99161.59;2098498;28;46616;-51
2024/03/03 02:07:52;;;;;;;;;24.80;24.60;;;;;12.52;100.00;99158.09;2098074;27;46806;-53
2024/03/03 02:08:52;;;;;;;;;25.40;23.80;;;;;12.53;100.00;99167.78;2106498;27;46142;-53
2024/03/03 02:09:53;;;;;;;;;27.25;25.75;;;;;12.50;100.00;99166.16;2106276;27;46404;-53
2024/03/03 02:10:53;;;;;;;;;28.50;25.75;;;;;12.51;100.00;99159.91;2098757;28;46487;-50
2024/03/03 02:11:53;;;;;;;;;26.00;25.50;;;;;12.32;100.00;99173.34;2099279;28;46387;-52
2024/03/03 02:12:54;;;;;;;;;29.50;29.50;;;;;12.29;100.00;99168.16;2098290;28;46486;-50
2024/03/03 02:13:54;;;;;;;;;30.00;28.25;;;;;12.25;100.00;99173.75;2098649;28;46519;-51
2024/03/03 02:14:55;;;;;;;;;30.00;27.25;;;;;12.22;100.00;99169.44;2098956;27;46293;-52
2024/03/03 02:15:55;;;;;;;;;28.50;28.00;;;;;12.22;100.00;99172.09;2097871;28;46208;-51
2024/03/03 02:16:55;;;;;;;;;25.50;24.00;;;;;12.20;100.00;99171.34;2098340;28;45957;-53
2024/03/03 02:17:56;;;;;;;;;28.75;24.75;;;;;12.19;100.00;99174.91;2098397;28;46295;-52
2024/03/03 02:18:56;;;;;;;;;30.50;26.50;;;;;12.19;100.00;99171.38;2098166;27;46582;-51
2024/03/03 02:19:56;;;;;;;;;18.50;18.50;;;;;12.19;100.00;99176.72;2098173;27;46787;-50
2024/03/03 02:20:57;;;;;;;;;30.00;28.75;;;;;12.18;100.00;99175.84;2097555;28;46471;-54
2024/03/03 02:21:57;;;;;;;;;30.25;29.00;;;;;12.19;100.00;99177.56;2096522;27;45407;-50
2024/03/03 02:22:58;;;;;;;;;25.50;22.75;;;;;12.18;100.00;99177.66;2098314;28;46367;-51
2024/03/03 02:23:58;;;;;;;;;26.00;26.00;;;;;12.18;100.00;99170.53;2096996;28;46222;-52
2024/03/03 02:24:58;;;;;;;;;31.25;29.50;;;;;12.20;100.00;99171.34;2097878;28;46550;-53
2024/03/03 02:25:59;;;;;;;;;28.25;26.75;;;;;12.21;100.00;99174.84;2097605;28;46373;-54
2024/03/03 02:27:01;;;;;;;;;28.75;25.75;;;;;12.23;100.00;99171.16;2097538;28;46211;-54
2024/03/03 02:28:01;;;;;;;;;21.20;21.20;;;;;12.20;100.00;99174.00;2097233;27;46892;-50
2024/03/03 02:29:03;;;;;;;;;22.00;21.50;;;;;12.19;100.00;99179.38;2098118;27;46284;-50
2024/03/03 02:30:04;;;;;;;;;27.00;26.00;;;;;12.19;100.00;99166.06;2097948;28;46465;-50
2024/03/03 02:31:05;;;;;;;;;25.60;25.60;;;;;12.19;100.00;99168.72;2097708;28;46478;-52
2024/03/03 02:32:05;;;;;;;;;25.25;23.50;;;;;12.18;100.00;99173.19;2097862;27;46540;-51
2024/03/03 02:33:06;;;;;;;;;25.00;25.00;;;;;12.24;100.00;99166.69;2097631;28;46459;-54
2024/03/03 02:34:06;;;;;;;;;26.50;26.50;;;;;12.19;100.00;99169.59;2097873;28;46124;-52
2024/03/03 02:35:07;;;;;;;;;30.50;30.00;;;;;12.37;100.00;99175.75;2078657;28;46942;-48
2024/03/03 02:36:08;;;;;;;;;29.00;28.00;;;;;12.37;100.00;99173.94;2079975;28;46403;-52
2024/03/03 02:37:09;;;;;;;;;22.00;22.00;;;;;12.45;100.00;99162.00;2071346;28;46748;-53
2024/03/03 02:38:09;;;;;;;;;24.50;24.25;;;;;12.44;100.00;99171.81;2072867;28;46721;-52
2024/03/03 02:39:10;;;;;;;;;24.00;24.00;;;;;12.26;100.00;99172.78;2100213;28;46881;-51
2024/03/03 02:40:10;;;;;;;;;27.75;26.00;;;;;12.23;100.00;99173.81;2096445;28;46695;-53
2024/03/03 02:41:10;;;;;;;;;21.50;21.50;;;;;12.20;100.00;99166.00;2099575;28;46417;-52
2024/03/03 02:42:11;;;;;;;;;22.00;21.25;;;;;12.21;100.00;99165.06;2099477;28;45613;-51
2024/03/03 02:43:11;;;;;;;;;25.75;24.00;;;;;12.20;100.00;99174.00;2099225;28;47294;-49
2024/03/03 02:44:11;;;;;;;;;26.00;25.00;;;;;12.17;100.00;99168.81;2099200;28;46570;-52
2024/03/03 02:45:12;;;;;;;;;18.50;18.00;;;;;12.16;100.00;99172.41;2099189;28;46790;-52
2024/03/03 02:46:13;;;;;;;;;21.50;20.75;;;;;12.33;100.00;99176.88;2099166;28;46187;-50
2024/03/03 02:47:13;;;;;;;;;21.60;21.20;;;;;12.41;100.00;99165.78;2099227;28;46871;-54
2024/03/03 02:48:14;;;;;;;;;25.50;25.00;;;;;12.42;100.00;99168.38;2099942;28;46674;-49
2024/03/03 02:49:14;;;;;;;;;25.25;23.25;;;;;12.41;100.00;99169.31;2090399;28;46770;-49
2024/03/03 02:50:14;;;;;;;;;22.00;20.75;;;;;12.38;100.00;99166.81;2090307;28;46347;-50
2024/03/03 02:51:15;;;;;;;;;20.00;20.00;;;;;12.24;100.00;99170.22;2098911;28;46594;-50
2024/03/03 02:52:15;;;;;;;;;23.75;22.00;;;;;12.20;100.00;99174.00;2080451;28;46640;-50
2024/03/03 02:53:16;;;;;;;;;23.25;23.25;;;;;12.27;100.00;99171.84;2081778;28;46677;-50
2024/03/03 02:54:16;;;;;;;;;26.75;21.50;;;;;12.39;100.00;99171.19;2099221;28;46097;-51
2024/03/03 02:55:17;;;;;;;;;21.25;21.25;;;;;12.20;100.00;99168.69;2099348;28;46791;-53
2024/03/03 02:56:17;;;;;;;;;17.50;17.00;;;;;12.18;100.00;99177.66;2099352;28;46825;-48
2024/03/03 02:57:17;;;;;;;;;18.75;18.75;;;;;12.17;100.00;99178.59;2098163;28;46580;-51
2024/03/03 02:58:18;;;;;;;;;22.25;21.50;;;;;12.16;100.00;99180.41;2099004;28;46535;-53
2024/03/03 02:59:18;;;;;;;;;26.75;20.75;;;;;12.16;100.00;99182.19;2098726;28;46267;-53
2024/03/03 03:00:18;;;;;;;;;17.00;17.00;;;;;12.16;100.00;99184.84;2099183;28;46279;-51
2024/03/03 03:01:19;;;;;;;;;17.50;17.00;;;;;12.36;100.00;99190.84;2099071;28;46455;-50
2024/03/03 03:02:19;;;;;;;;;23.00;22.50;;;;;12.43;100.00;99187.84;2099339;28;46726;-49
2024/03/03 03:03:19;;;;;;;;;20.75;20.75;;;;;12.46;100.00;99191.22;2099416;28;45508;-52
2024/03/03 03:04:20;;;;;;;;;21.50;19.00;;;;;12.49;100.00;99195.50;2099091;28;46889;-49
2024/03/03 03:05:20;;;;;;;;;19.25;19.25;;;;;12.49;100.00;99195.50;2099232;28;46545;-52
2024/03/03 03:06:20;;;;;;;;;20.50;18.00;;;;;12.50;100.00;99190.09;2099318;28;46310;-52
2024/03/03 03:07:21;;;;;;;;;21.25;19.75;;;;;12.52;100.00;99193.53;2098580;28;46850;-51
2024/03/03 03:08:21;;;;;;;;;16.75;16.75;;;;;12.51;100.00;99196.28;2100167;28;45924;-51
2024/03/03 03:09:22;;;;;;;;;19.25;17.50;;;;;12.53;100.00;99197.91;2099992;28;46741;-51
2024/03/03 03:10:23;;;;;;;;;19.60;18.60;;;;;12.52;100.00;99190.88;2099535;28;46700;-53
2024/03/03 03:11:24;;;;;;;;;20.50;20.00;;;;;12.52;100.00;99185.56;2097922;28;46550;-51
2024/03/03 03:12:24;;;;;;;;;18.00;16.00;;;;;12.51;100.00;99191.81;2098814;28;46869;-52
2024/03/03 03:13:25;;;;;;;;;21.25;20.75;;;;;12.51;100.00;99199.81;2098540;28;46653;-50
2024/03/03 03:14:25;;;;;;;;;17.75;17.25;;;;;12.48;100.00;99191.13;2097100;28;46586;-52
2024/03/03 03:15:25;;;;;;;;;20.50;17.25;;;;;12.48;100.00;99184.00;2099781;28;46741;-52
2024/03/03 03:16:26;;;;;;;;;18.75;15.50;;;;;12.44;100.00;99185.09;2100125;28;46377;-52
2024/03/03 03:17:26;;;;;;;;;14.00;14.00;;;;;12.49;100.00;99183.06;2099502;28;45907;-53
2024/03/03 03:18:26;;;;;;;;;14.25;13.75;;;;;12.47;100.00;99187.63;2098843;28;46569;-52
2024/03/03 03:19:30;;;;;;;;;14.50;14.50;;;;;12.48;100.00;99186.69;2099245;28;46968;-49
2024/03/03 03:20:30;;;;;;;;;13.75;12.50;;;;;12.48;100.00;99189.34;2090645;28;46536;-49
2024/03/03 03:21:30;;;;;;;;;15.75;15.75;;;;;12.46;100.00;99175.25;2090891;28;45826;-52
2024/03/03 03:22:31;;;;;;;;;14.33;12.33;;;;;12.49;100.00;99183.06;2099828;28;46856;-53
2024/03/03 03:23:32;;;;;;;;;15.33;12.00;;;;;12.49;100.00;99183.06;2098796;28;46629;-51
2024/03/03 03:24:32;;;;;;;;;13.67;13.67;;;;;12.49;100.00;99183.06;2100067;28;46265;-49
2024/03/03 03:25:32;;;;;;;;;11.67;11.67;;;;;12.48;100.00;99186.69;2092697;28;46448;-51
2024/03/03 03:26:34;;;;;;;;;16.33;14.00;;;;;12.49;100.00;99184.88;2093474;28;46187;-52
2024/03/03 03:27:34;;;;;;;;;13.50;12.75;;;;;12.48;100.00;99197.31;2099007;28;46829;-52
2024/03/03 03:28:35;;;;;;;;;15.33;13.33;;;;;12.49;100.00;99191.06;2098921;28;46648;-48
2024/03/03 03:29:35;;;;;;;;;11.33;11.33;;;;;12.51;100.00;99180.31;2090436;28;46264;-47
2024/03/03 03:30:35;;;;;;;;;13.33;13.33;;;;;12.50;100.00;99182.13;2089500;28;46934;-51
2024/03/03 03:31:35;;;;;;;;;13.00;12.25;;;;;12.50;100.00;99182.13;2098151;28;46392;-49
2024/03/03 03:32:36;;;;;;;;;12.00;12.00;;;;;12.50;100.00;99182.13;2098774;27;46380;-51
2024/03/03 03:33:36;;;;;;;;;13.00;12.00;;;;;12.49;100.00;99180.41;2090090;28;46560;-52
2024/03/03 03:34:36;;;;;;;;;13.00;13.00;;;;;12.51;100.00;99186.50;2087697;28;46457;-49
2024/03/03 03:35:37;;;;;;;;;16.33;15.00;;;;;12.50;100.00;99184.78;2098733;28;45713;-49
2024/03/03 03:36:37;;;;;;;;;11.33;11.33;;;;;12.49;100.00;99184.88;2080762;28;46751;-50
2024/03/03 03:37:37;;;;;;;;;11.33;11.33;;;;;12.51;100.00;99186.50;2081515;28;46745;-53
2024/03/03 03:38:38;;;;;;;;;12.67;12.67;;;;;12.50;100.00;99187.44;2098781;28;46603;-51
2024/03/03 03:39:39;;;;;;;;;14.00;14.00;;;;;12.51;100.00;99197.16;2099111;28;46155;-50
2024/03/03 03:40:39;;;;;;;;;16.80;13.60;;;;;12.51;100.00;99188.31;2098798;28;46821;-52
2024/03/03 03:41:45;;;;;;;;;16.00;13.67;;;;;12.52;100.00;99187.34;2098778;28;46493;-50
2024/03/03 03:42:45;;;;;;;;;14.00;14.00;;;;;12.52;100.00;99187.34;2098449;28;46802;-52
2024/03/03 03:43:46;;;;;;;;;11.33;10.00;;;;;12.51;100.00;99180.31;2099408;28;46261;-53
2024/03/03 03:44:46;;;;;;;;;12.33;12.00;;;;;12.49;100.00;99185.72;2099838;28;46913;-51
2024/03/03 03:45:47;;;;;;;;;13.00;12.00;;;;;12.49;100.00;99187.53;2098597;28;46039;-51
2024/03/03 03:46:48;;;;;;;;;16.00;15.00;;;;;12.50;100.00;99197.22;2097686;28;46322;-53
2024/03/03 03:47:48;;;;;;;;;9.75;9.25;;;;;12.48;100.00;99192.00;2080952;28;46462;-49
2024/03/03 03:48:48;;;;;;;;;10.00;9.67;;;;;12.47;100.00;99194.75;2080316;28;46247;-51
2024/03/03 03:49:49;;;;;;;;;8.33;8.33;;;;;12.46;100.00;99193.88;2097848;28;46436;-53
2024/03/03 03:50:49;;;;;;;;;8.33;6.67;;;;;12.49;100.00;99188.41;2098712;28;46563;-52
2024/03/03 03:51:49;;;;;;;;;10.00;8.33;;;;;12.49;100.00;99192.84;2099610;28;46548;-53
2024/03/03 03:52:50;;;;;;;;;9.67;8.33;;;;;12.50;100.00;99191.91;2098448;28;46225;-52
2024/03/03 03:53:50;;;;;;;;;7.67;7.67;;;;;12.50;100.00;99189.25;2098439;28;46805;-51
2024/03/03 03:54:50;;;;;;;;;8.00;8.00;;;;;12.45;100.00;99186.84;2098871;28;46317;-51
2024/03/03 03:55:51;;;;;;;;;7.00;7.00;;;;;12.49;100.00;99195.50;2099129;28;46722;-52
2024/03/03 03:56:51;;;;;;;;;7.67;6.33;;;;;12.49;100.00;99191.06;2099067;28;46254;-52
2024/03/03 03:57:51;;;;;;;;;7.00;7.00;;;;;12.48;100.00;99193.81;2099252;28;46023;-52
2024/03/03 03:58:52;;;;;;;;;6.67;6.67;;;;;12.46;100.00;99191.22;2098957;28;46497;-50
2024/03/03 03:59:52;;;;;;;;;6.00;6.00;;;;;12.46;100.00;99193.88;2099164;28;46694;-52
2024/03/03 04:00:52;;;;;;;;;7.33;6.00;;;;;12.45;100.00;99192.16;2098358;28;46644;-53
2024/03/03 04:01:54;;;;;;;;;6.00;6.00;;;;;12.46;100.00;99199.22;2098675;28;45954;-53
2024/03/03 04:02:55;;;;;;;;;5.75;5.75;;;;;12.46;100.00;99190.38;2098058;28;47006;-51
2024/03/03 04:03:56;;;;;;;;;8.00;7.00;;;;;12.46;100.00;99198.34;2097119;28;46432;-51
2024/03/03 04:04:58;;;;;;;;;6.00;6.00;;;;;12.45;100.00;99194.84;2098819;28;46802;-52
2024/03/03 04:05:58;;;;;;;;;6.00;6.00;;;;;12.43;100.00;99196.69;2098752;28;46421;-52
2024/03/03 04:06:58;;;;;;;;;7.00;6.00;;;;;12.43;100.00;99196.69;2098583;28;46286;-51
2024/03/03 04:07:59;;;;;;;;;5.00;5.00;;;;;12.43;100.00;99194.03;2099621;28;46361;-51
2024/03/03 04:09:01;;;;;;;;;8.33;6.67;;;;;12.42;100.00;99196.78;2098851;28;46426;-50
2024/03/03 04:10:01;;;;;;;;;5.00;5.00;;;;;12.43;100.00;99198.50;2072550;28;46882;-52
2024/03/03 04:11:02;;;;;;;;;6.00;6.00;;;;;12.43;100.00;99194.03;2071146;28;46181;-53
2024/03/03 04:12:03;;;;;;;;;6.00;6.00;;;;;12.41;100.00;99195.06;2099157;28;46709;-48
2024/03/03 04:13:03;;;;;;;;;6.00;6.00;;;;;12.40;100.00;99194.19;2099550;28;46729;-51
2024/03/03 04:14:04;;;;;;;;;7.00;7.00;;;;;12.40;100.00;99199.53;2099417;28;46520;-52
2024/03/03 04:15:04;;;;;;;;;7.00;7.00;;;;;12.40;100.00;99196.84;2098041;28;46140;-51
2024/03/03 04:16:06;;;;;;;;;6.33;5.67;;;;;12.42;100.00;99196.78;2098846;28;46648;-52
2024/03/03 04:17:06;;;;;;;;;7.25;7.25;;;;;12.40;100.00;99191.53;2098347;28;46982;-51
2024/03/03 04:18:07;;;;;;;;;9.00;8.00;;;;;12.41;100.00;99195.91;2099228;28;46634;-52
2024/03/03 04:19:07;;;;;;;;;15.00;15.00;;;;;12.40;100.00;99196.84;2098488;28;46642;-50
2024/03/03 04:20:08;;;;;;;;;11.00;10.00;;;;;12.39;100.00;99200.47;2098953;28;46000;-53
2024/03/03 04:21:08;;;;;;;;;13.75;12.50;;;;;12.39;100.00;99203.13;2078180;28;46786;-52
2024/03/03 04:22:10;;;;;;;;;12.67;11.00;;;;;12.40;100.00;99196.84;2081236;28;46321;-51
2024/03/03 04:23:10;;;;;;;;;10.00;10.00;;;;;12.38;100.00;99204.94;2098349;28;46984;-54
2024/03/03 04:24:10;;;;;;;;;12.67;10.67;;;;;12.40;100.00;99203.97;2098643;28;46338;-54
2024/03/03 04:25:11;;;;;;;;;11.33;9.33;;;;;12.40;100.00;99209.31;2099145;28;46366;-48
2024/03/03 04:26:12;;;;;;;;;13.75;12.00;;;;;12.41;100.00;99201.22;2088821;28;46584;-49
2024/03/03 04:27:12;;;;;;;;;14.00;13.25;;;;;12.42;100.00;99202.09;2089993;28;46822;-50
2024/03/03 04:28:13;;;;;;;;;13.67;12.00;;;;;12.43;100.00;99210.00;2098901;28;46691;-50
2024/03/03 04:29:14;;;;;;;;;11.67;11.67;;;;;12.44;100.00;99201.06;2099712;28;46658;-51
2024/03/03 04:30:14;;;;;;;;;13.75;11.50;;;;;12.44;100.00;99205.53;2098228;28;46726;-51
2024/03/03 04:31:14;;;;;;;;;12.00;12.00;;;;;12.43;100.00;99207.31;2099578;28;46286;-51
2024/03/03 04:32:15;;;;;;;;;16.33;13.00;;;;;12.46;100.00;99204.53;2098978;27;46340;-52
2024/03/03 04:33:15;;;;;;;;;13.75;12.75;;;;;12.46;100.00;99207.19;2099185;28;46738;-52
2024/03/03 04:34:16;;;;;;;;;14.00;12.67;;;;;12.46;100.00;99209.00;2098516;28;46822;-48
2024/03/03 04:35:16;;;;;;;;;15.00;12.00;;;;;12.46;100.00;99209.84;2083991;28;46561;-48
2024/03/03 04:36:17;;;;;;;;;11.33;10.00;;;;;12.48;100.00;99207.09;2081858;28;46321;-52